This is the latest recevied weather packets stored in our database for station/object EA3GKP-7. If no packets are shown the sender has not sent any weather packets the latest 1 day(s).
| Time | Temp. | Humidity | Pressure | Rain* | Wind** | Luminosity | Snow |
|---|---|---|---|---|---|---|---|
| 1778062042 | 23.89° C | 42% | 1016.5 hPa | - | - | - | - |
| 1778060242 | 22.22° C | 46% | 1016.8 hPa | - | - | - | - |
| 1778059642 | 23.89° C | 44% | 1016.9 hPa | - | - | - | - |
| 1778059042 | 23.33° C | 47% | 1016.8 hPa | - | - | - | - |
| 1778058742 | 22.78° C | 48% | 1016.7 hPa | - | - | - | - |
| 1778058142 | 21.11° C | 51% | 1016.8 hPa | - | - | - | - |
| 1778057842 | 22.22° C | 49% | 1016.8 hPa | - | - | - | - |
| 1778057542 | 22.22° C | 52% | 1016.8 hPa | - | - | - | - |
| 1778057242 | 21.11° C | 56% | 1016.7 hPa | - | - | - | - |
| 1778056942 | 20° C | 56% | 1016.9 hPa | - | - | - | - |
| 1778056642 | 20.56° C | 54% | 1016.9 hPa | - | - | - | - |
| 1778056342 | 20° C | 57% | 1016.7 hPa | - | - | - | - |
| 1778056042 | 19.44° C | 58% | 1016.7 hPa | - | - | - | - |
| 1778055742 | 18.89° C | 59% | 1016.8 hPa | - | - | - | - |
| 1778055442 | 18.89° C | 60% | 1016.8 hPa | - | - | - | - |
| 1778055142 | 18.89° C | 61% | 1016.7 hPa | - | - | - | - |
| 1778054842 | 18.33° C | 61% | 1016.8 hPa | - | - | - | - |
| 1778054542 | 18.33° C | 66% | 1016.9 hPa | - | - | - | - |
| 1778054242 | 18.33° C | 65% | 1016.8 hPa | - | - | - | - |
| 1778053642 | 18.33° C | 68% | 1016.7 hPa | - | - | - | - |
| 1778053342 | 18.33° C | 68% | 1016.8 hPa | - | - | - | - |
| 1778053042 | 18.33° C | 69% | 1016.6 hPa | - | - | - | - |
| 1778052742 | 17.78° C | 71% | 1016.6 hPa | - | - | - | - |
| 1778052442 | 17.22° C | 72% | 1016.5 hPa | - | - | - | - |
| 1778052142 | 17.22° C | 75% | 1016.5 hPa | - | - | - | - |
* Rain since midnight (hover to see other rain measurements)
** Current wind speed in m/s (hover to see current wind gust speed)